Time;durP1;ratioP1;P1;durP2;ratioP2;P2;SDS_P1;SDS_P2;PMS_P1;PMS_P2;Temp;Humidity;BMP_temperature;BMP_pressure;BME280_temperature;BME280_humidity;BME280_pressure;Samples;Min_cycle;Max_cycle;Signal;HPM_P1;HPM_P2
2023/03/19 00:01:21;;;;;;;10.57;3.25;;;;;;;15.55;53.20;96745.81;5042041;28;20024;-32
2023/03/19 00:03:46;;;;;;;10.65;3.90;;;;;;;15.45;53.31;96734.81;5037232;28;20017;-34
2023/03/19 00:06:12;;;;;;;11.18;4.13;;;;;;;15.36;53.58;96748.44;5048555;28;20485;-32
2023/03/19 00:08:37;;;;;;;8.98;3.35;;;;;;;15.23;53.99;96753.25;5043543;28;20037;-32
2023/03/19 00:11:07;;;;;;;12.52;3.88;;;;;;;15.34;53.73;96748.13;5039694;28;20025;-32
2023/03/19 00:13:33;;;;;;;8.15;3.25;;;;;;;15.52;53.14;96741.97;5039515;28;20033;-32
2023/03/19 00:15:58;;;;;;;9.82;3.78;;;;;;;15.24;53.88;96738.38;5045824;28;20457;-32
2023/03/19 00:18:24;;;;;;;7.88;3.20;;;;;;;15.27;53.81;96737.50;5046713;28;20070;-33
2023/03/19 00:20:49;;;;;;;9.80;3.85;;;;;;;15.32;53.64;96733.41;5044739;28;20032;-33
2023/03/19 00:23:15;;;;;;;12.98;3.58;;;;;;;15.27;53.67;96737.50;5039425;28;20035;-32
2023/03/19 00:25:41;;;;;;;9.90;3.58;;;;;;;15.38;53.59;96732.38;5039935;28;20018;-32
2023/03/19 00:28:07;;;;;;;9.70;3.53;;;;;;;15.42;53.32;96718.56;5043505;28;20063;-34
2023/03/19 00:30:32;;;;;;;10.13;3.20;;;;;;;15.39;53.37;96700.34;5043321;28;20018;-32
2023/03/19 00:32:58;;;;;;;7.57;3.35;;;;;;;15.32;53.48;96695.94;5042762;28;20028;-34
2023/03/19 00:35:23;;;;;;;11.95;3.75;;;;;;;15.29;53.52;96693.31;5043216;28;20029;-34
2023/03/19 00:37:49;;;;;;;8.13;3.22;;;;;;;15.29;53.54;96698.78;5043560;28;20021;-33
2023/03/19 00:40:16;;;;;;;7.85;2.88;;;;;;;15.24;53.49;96697.41;5037985;28;20036;-32
2023/03/19 00:42:43;;;;;;;9.40;3.03;;;;;;;15.21;53.78;96695.56;5046585;28;20396;-32
2023/03/19 00:45:10;;;;;;;11.50;3.20;;;;;;;15.27;53.27;96688.31;5037877;28;20469;-32
2023/03/19 00:47:35;;;;;;;10.65;2.90;;;;;;;15.12;53.71;96687.34;5045402;28;20503;-33
2023/03/19 00:50:01;;;;;;;6.95;2.50;;;;;;;15.16;53.91;96679.78;5039641;28;20022;-32
2023/03/19 00:52:27;;;;;;;9.15;2.80;;;;;;;15.18;53.46;96687.53;5044045;28;20037;-32
2023/03/19 00:54:52;;;;;;;6.05;2.88;;;;;;;15.16;53.32;96690.69;5041180;28;20018;-32
2023/03/19 00:57:18;;;;;;;8.45;2.53;;;;;;;15.15;53.33;96686.44;5042584;28;20029;-32
2023/03/19 00:59:43;;;;;;;7.18;2.70;;;;;;;15.15;53.34;96680.97;5045088;28;20025;-32
2023/03/19 01:02:09;;;;;;;8.02;2.95;;;;;;;15.30;53.07;96671.03;5039935;28;20040;-32
2023/03/19 01:04:35;;;;;;;12.40;2.72;;;;;;;15.18;53.36;96679.31;5042879;28;20106;-32
2023/03/19 01:07:00;;;;;;;11.13;3.38;;;;;;;15.15;53.03;96675.53;5042866;28;20045;-32
2023/03/19 01:09:27;;;;;;;10.00;3.30;;;;;;;15.12;53.26;96675.66;5042505;28;20025;-32
2023/03/19 01:11:53;;;;;;;9.93;2.83;;;;;;;15.05;53.50;96676.69;5042673;28;20932;-32
2023/03/19 01:14:18;;;;;;;11.38;3.22;;;;;;;15.11;53.32;96680.34;5039985;28;20086;-32
2023/03/19 01:16:44;;;;;;;7.78;2.80;;;;;;;15.12;53.43;96675.66;5043776;28;20021;-32
2023/03/19 01:19:11;;;;;;;10.63;3.67;;;;;;;15.19;53.39;96678.13;5038873;28;20028;-32
2023/03/19 01:21:36;;;;;;;13.35;3.78;;;;;;;15.05;53.61;96676.69;5052631;28;20111;-32
2023/03/19 01:24:03;;;;;;;9.40;3.67;;;;;;;15.05;53.95;96688.38;5042664;28;20120;-33
2023/03/19 01:26:28;;;;;;;9.65;2.95;;;;;;;15.27;53.45;96674.66;5047310;28;20115;-32
2023/03/19 01:28:54;;;;;;;8.70;3.58;;;;;;;15.08;53.97;96670.34;5036604;28;20941;-32
2023/03/19 01:31:20;;;;;;;7.05;3.08;;;;;;;15.14;53.81;96682.19;5042271;28;20029;-32
2023/03/19 01:33:46;;;;;;;9.32;3.35;;;;;;;15.26;53.42;96684.06;5042186;28;20041;-33
2023/03/19 01:36:12;;;;;;;11.52;3.90;;;;;;;15.28;53.47;96684.38;5043829;28;20052;-32
2023/03/19 01:38:38;;;;;;;7.80;3.22;;;;;;;15.13;53.83;96688.88;5040617;28;20021;-33
2023/03/19 01:41:03;;;;;;;10.40;3.28;;;;;;;15.01;54.38;96687.00;5041535;28;20044;-32
2023/03/19 01:43:31;;;;;;;11.73;3.58;;;;;;;15.06;54.00;96691.88;5044593;28;20052;-32
2023/03/19 01:46:06;;;;;;;8.82;3.47;;;;;;;15.04;54.20;96680.63;5045812;28;20460;-32
2023/03/19 01:48:54;;;;;;;7.72;3.10;;;;;;;15.19;54.08;96681.63;5037556;28;20482;-32
2023/03/19 01:51:25;;;;;;;10.65;3.30;;;;;;;15.15;53.95;96680.22;5036362;28;20424;-32
2023/03/19 01:53:54;;;;;;;9.38;3.10;;;;;;;15.21;54.12;96689.34;5044610;28;20461;-32
2023/03/19 01:56:32;;;;;;;8.07;3.55;;;;;;;15.39;53.50;96692.91;5043871;28;20147;-32
2023/03/19 01:59:04;;;;;;;10.57;3.70;;;;;;;15.12;54.65;96692.03;5046981;28;20033;-32
2023/03/19 02:01:33;;;;;;;8.63;3.85;;;;;;;15.28;54.22;96698.03;5043949;28;20021;-32
2023/03/19 02:03:59;;;;;;;8.18;3.00;;;;;;;15.18;54.40;96687.53;5041688;28;20049;-32
2023/03/19 02:06:27;;;;;;;13.75;3.72;;;;;;;15.17;54.77;96691.47;5041505;28;20025;-32
2023/03/19 02:08:53;;;;;;;8.75;3.75;;;;;;;15.19;54.28;96684.34;5048728;28;20014;-32
2023/03/19 02:11:20;;;;;;;9.75;4.05;;;;;;;15.21;54.25;96681.13;5033914;28;20021;-32
2023/03/19 02:13:46;;;;;;;18.10;3.90;;;;;;;15.19;54.45;96678.88;5042005;28;20064;-32
2023/03/19 02:16:11;;;;;;;10.38;3.65;;;;;;;15.10;54.76;96684.28;5041348;28;20017;-32
2023/03/19 02:18:37;;;;;;;9.10;3.08;;;;;;;15.13;54.65;96675.19;5034290;28;20539;-32
2023/03/19 02:21:06;;;;;;;8.88;3.65;;;;;;;15.15;54.69;96675.53;5049495;28;20040;-32
2023/03/19 02:24:07;;;;;;;8.63;3.47;;;;;;;15.28;54.34;96670.72;5038503;28;20029;-33
2023/03/19 02:26:35;;;;;;;12.65;3.78;;;;;;;15.31;54.54;96678.00;5049753;28;20055;-32
2023/03/19 02:29:02;;;;;;;8.40;4.07;;;;;;;15.24;54.82;96667.34;5049999;28;20548;-32
2023/03/19 02:31:28;;;;;;;9.02;3.33;;;;;;;15.03;55.46;96665.47;5050221;28;20033;-32
2023/03/19 02:33:58;;;;;;;9.07;3.67;;;;;;;15.17;55.32;96664.16;5050218;28;20021;-33
2023/03/19 02:36:30;;;;;;;9.15;3.78;;;;;;;15.21;55.27;96662.78;5050731;28;20167;-32
2023/03/19 02:38:57;;;;;;;11.25;3.83;;;;;;;15.06;55.61;96662.59;5050808;28;20066;-32
2023/03/19 02:41:25;;;;;;;7.65;3.35;;;;;;;15.07;55.87;96666.09;5050700;28;20062;-32
2023/03/19 02:43:52;;;;;;;11.30;3.88;;;;;;;14.97;56.41;96667.25;5050524;28;20048;-32
2023/03/19 02:46:17;;;;;;;11.70;3.85;;;;;;;15.15;56.16;96674.75;5050137;28;20029;-32
2023/03/19 02:48:42;;;;;;;12.70;4.53;;;;;;;15.07;56.11;96675.03;5050343;28;20044;-32
2023/03/19 02:51:08;;;;;;;12.38;3.72;;;;;;;15.15;56.04;96675.53;5050115;28;20089;-32
2023/03/19 02:53:33;;;;;;;11.55;3.25;;;;;;;15.12;55.98;96678.38;5049934;28;20064;-32
2023/03/19 02:55:59;;;;;;;12.40;3.97;;;;;;;15.13;56.03;96675.19;5050655;28;20041;-32
2023/03/19 02:58:25;;;;;;;14.55;3.95;;;;;;;15.29;55.74;96682.41;5049982;28;20511;-32
2023/03/19 03:00:51;;;;;;;14.00;3.75;;;;;;;15.15;56.27;96685.69;5050085;28;20475;-32
2023/03/19 03:03:17;;;;;;;7.70;3.90;;;;;;;15.15;56.34;96689.19;5040953;28;20032;-32
2023/03/19 03:05:42;;;;;;;10.75;3.90;;;;;;;15.19;56.05;96686.31;5049332;28;21970;-32
2023/03/19 03:08:09;;;;;;;15.18;4.00;;;;;;;15.24;56.18;96689.19;5038786;28;20034;-32
2023/03/19 03:10:35;;;;;;;8.63;3.80;;;;;;;15.20;56.17;96693.31;5040513;28;20029;-32
2023/03/19 03:13:00;;;;;;;12.82;4.05;;;;;;;15.07;56.54;96696.13;5040095;28;20105;-33
2023/03/19 03:15:26;;;;;;;11.85;4.07;;;;;;;15.17;56.30;96694.19;5040424;28;20084;-33
2023/03/19 03:17:52;;;;;;;12.35;3.92;;;;;;;15.13;56.77;96682.63;5040353;28;20029;-32
2023/03/19 03:20:18;;;;;;;12.75;4.32;;;;;;;15.22;56.30;96690.84;5040226;28;20068;-32
2023/03/19 03:22:45;;;;;;;10.57;4.25;;;;;;;15.17;56.48;96683.28;5039809;28;20353;-32
2023/03/19 03:25:11;;;;;;;13.23;4.07;;;;;;;15.00;57.13;96685.47;5040465;28;20041;-32
2023/03/19 03:27:37;;;;;;;16.35;4.38;;;;;;;14.97;57.22;96686.34;5039199;28;20059;-32
2023/03/19 03:30:05;;;;;;;14.18;4.85;;;;;;;15.05;57.04;96682.94;5040967;28;20036;-32
2023/03/19 03:32:31;;;;;;;15.02;5.20;;;;;;;14.90;57.64;96692.88;5037401;28;20070;-32
2023/03/19 03:34:56;;;;;;;15.18;4.07;;;;;;;14.95;57.68;96694.25;5042845;28;20520;-32
2023/03/19 03:37:22;;;;;;;11.68;4.00;;;;;;;15.02;57.34;96696.72;5036149;28;20036;-32
2023/03/19 03:39:47;;;;;;;12.38;4.28;;;;;;;15.05;57.20;96690.34;5047186;28;20020;-33
2023/03/19 03:42:13;;;;;;;16.52;5.15;;;;;;;15.07;57.03;96694.16;5038639;28;20025;-33
2023/03/19 03:44:39;;;;;;;13.98;4.03;;;;;;;15.08;57.07;96698.41;5054310;28;20488;-32
2023/03/19 03:47:05;;;;;;;19.75;4.75;;;;;;;15.11;57.01;96696.75;5038606;28;20030;-32
2023/03/19 03:49:31;;;;;;;7.65;3.88;;;;;;;14.96;57.61;96701.25;5044094;28;20098;-32
2023/03/19 03:51:57;;;;;;;10.82;4.68;;;;;;;14.95;57.65;96702.47;5044156;28;20424;-32
2023/03/19 03:54:23;;;;;;;10.02;4.38;;;;;;;15.01;57.76;96706.13;5043952;28;20104;-33
2023/03/19 03:56:49;;;;;;;12.18;4.90;;;;;;;14.82;58.17;96712.69;5043634;28;20152;-32
2023/03/19 03:59:15;;;;;;;9.35;4.43;;;;;;;15.09;57.26;96715.53;5043236;28;20013;-33
2023/03/19 04:01:41;;;;;;;11.18;4.53;;;;;;;14.94;57.79;96717.31;5047873;28;20503;-34
2023/03/19 04:04:06;;;;;;;14.55;4.32;;;;;;;15.03;57.62;96718.13;5041965;28;20139;-32
2023/03/19 04:06:33;;;;;;;16.45;4.35;;;;;;;15.09;57.67;96719.03;5038625;28;20029;-32
2023/03/19 04:08:59;;;;;;;11.80;4.03;;;;;;;14.97;57.86;96716.41;5036710;28;20025;-32
2023/03/19 04:11:25;;;;;;;11.23;4.65;;;;;;;14.88;58.14;96716.38;5043525;28;20032;-32
2023/03/19 04:13:53;;;;;;;10.15;3.53;;;;;;;15.19;57.38;96719.84;5050741;28;20107;-32
2023/03/19 04:16:18;;;;;;;9.68;3.58;;;;;;;15.14;57.25;96717.69;5036060;28;20087;-34
2023/03/19 04:18:43;;;;;;;9.48;4.18;;;;;;;15.05;57.63;96725.88;5043712;28;20033;-32
2023/03/19 04:21:09;;;;;;;7.85;4.03;;;;;;;15.18;57.21;96717.56;5043696;28;20024;-32
2023/03/19 04:23:34;;;;;;;10.82;3.80;;;;;;;15.03;57.66;96714.63;5036531;28;20148;-32
2023/03/19 04:26:02;;;;;;;7.03;3.47;;;;;;;14.98;57.68;96715.97;5043021;28;20029;-32
2023/03/19 04:28:28;;;;;;;11.02;3.45;;;;;;;15.01;57.66;96719.78;5048057;28;20031;-32
2023/03/19 04:31:06;;;;;;;11.00;3.85;;;;;;;15.09;57.37;96704.63;5051625;28;20017;-32
2023/03/19 04:33:33;;;;;;;10.65;3.25;;;;;;;15.07;57.46;96704.34;5036424;28;20017;-32
2023/03/19 04:35:59;;;;;;;9.43;3.97;;;;;;;14.96;57.58;96712.19;5043498;28;20028;-32
2023/03/19 04:38:25;;;;;;;8.40;3.65;;;;;;;14.95;57.99;96705.19;5045909;28;20030;-32
2023/03/19 04:40:51;;;;;;;9.35;3.75;;;;;;;15.06;57.64;96700.84;5045978;28;20368;-32
2023/03/19 04:43:17;;;;;;;9.20;3.47;;;;;;;14.96;57.83;96703.97;5036124;28;20045;-32
2023/03/19 04:45:42;;;;;;;9.60;3.70;;;;;;;15.07;57.71;96704.34;5049321;28;20053;-32
2023/03/19 04:48:07;;;;;;;7.53;3.25;;;;;;;15.14;57.32;96706.00;5043006;28;20045;-32
2023/03/19 04:50:33;;;;;;;8.98;3.60;;;;;;;15.18;57.21;96701.19;5037443;28;20064;-32
2023/03/19 04:52:59;;;;;;;8.93;3.42;;;;;;;15.26;56.75;96700.44;5046038;28;20055;-32
2023/03/19 04:55:24;;;;;;;8.70;3.20;;;;;;;15.03;57.40;96703.69;5036798;28;20030;-32
2023/03/19 04:57:50;;;;;;;9.95;3.65;;;;;;;15.05;57.61;96699.31;5042895;28;20457;-33
2023/03/19 05:00:16;;;;;;;9.10;3.00;;;;;;;15.10;57.58;96697.94;5042719;28;20146;-32
2023/03/19 05:02:43;;;;;;;9.43;3.38;;;;;;;15.09;57.61;96694.44;5035600;28;20116;-32
2023/03/19 05:05:12;;;;;;;7.15;3.70;;;;;;;15.29;57.22;96698.78;5042878;28;20029;-32
2023/03/19 05:07:39;;;;;;;8.13;3.13;;;;;;;15.28;57.21;96695.28;5042722;28;20064;-32
2023/03/19 05:10:05;;;;;;;8.40;3.10;;;;;;;15.12;57.73;96697.50;5045465;28;20032;-32
2023/03/19 05:12:30;;;;;;;12.40;3.55;;;;;;;15.22;57.13;96693.59;5038385;28;20029;-32
2023/03/19 05:14:57;;;;;;;5.65;3.13;;;;;;;15.18;57.43;96698.44;5042803;28;20350;-32
2023/03/19 05:17:22;;;;;;;6.95;3.38;;;;;;;15.16;57.47;96698.13;5042322;28;20021;-32
2023/03/19 05:19:49;;;;;;;8.93;3.03;;;;;;;15.23;57.31;96692.38;5042299;28;20034;-32
2023/03/19 05:22:14;;;;;;;9.45;3.55;;;;;;;15.09;57.67;96696.44;5045203;28;20021;-32
2023/03/19 05:24:40;;;;;;;9.60;3.35;;;;;;;15.04;57.84;96697.03;5045572;28;20092;-32
2023/03/19 05:27:06;;;;;;;8.55;3.53;;;;;;;15.08;57.51;96706.59;5036777;28;20025;-32
2023/03/19 05:29:32;;;;;;;9.75;3.38;;;;;;;15.14;57.49;96709.50;5045671;28;20025;-32
2023/03/19 05:32:01;;;;;;;8.82;2.97;;;;;;;14.97;57.88;96708.97;5036912;28;20029;-33
2023/03/19 05:34:27;;;;;;;10.38;3.50;;;;;;;15.05;57.50;96714.94;5044948;28;20017;-32
2023/03/19 05:36:53;;;;;;;7.95;2.67;;;;;;;14.97;57.97;96724.59;5038201;28;20497;-32
2023/03/19 05:39:18;;;;;;;9.65;2.97;;;;;;;14.95;57.82;96727.03;5049022;28;20040;-32
2023/03/19 05:41:44;;;;;;;10.50;2.90;;;;;;;14.97;57.63;96721.88;5042199;28;20021;-32
2023/03/19 05:44:10;;;;;;;7.65;3.20;;;;;;;15.03;57.38;96733.75;5041304;28;20100;-32
2023/03/19 05:46:35;;;;;;;5.75;3.05;;;;;;;15.04;57.71;96729.81;5044699;28;20017;-32
2023/03/19 05:49:01;;;;;;;9.85;3.20;;;;;;;15.02;57.72;96732.97;5044808;28;20051;-32
2023/03/19 05:51:26;;;;;;;11.73;3.50;;;;;;;14.88;58.17;96740.94;5041109;28;20029;-32
2023/03/19 05:53:52;;;;;;;13.45;3.97;;;;;;;14.98;58.02;96745.25;5041787;28;20017;-32
2023/03/19 05:56:17;;;;;;;8.40;3.30;;;;;;;14.91;58.17;96745.50;5037150;28;20076;-32
2023/03/19 05:58:43;;;;;;;6.93;3.03;;;;;;;15.25;57.22;96750.84;5037248;28;20029;-32
2023/03/19 06:01:08;;;;;;;12.15;3.45;;;;;;;15.01;58.03;96752.53;5044610;28;20043;-32
2023/03/19 06:03:33;;;;;;;9.75;3.25;;;;;;;15.18;57.68;96748.38;5036122;28;20029;-33
2023/03/19 06:06:00;;;;;;;9.27;3.30;;;;;;;14.90;58.70;96757.63;5044441;28;20025;-32
2023/03/19 06:08:25;;;;;;;7.47;4.00;;;;;;;15.11;57.89;96754.09;5037834;28;20021;-32
2023/03/19 06:10:52;;;;;;;11.15;3.45;;;;;;;15.07;58.14;96758.97;5041643;28;20025;-32
2023/03/19 06:13:17;;;;;;;11.68;3.53;;;;;;;14.96;58.36;96761.34;5046709;28;20465;-32
2023/03/19 06:15:43;;;;;;;5.35;3.20;;;;;;;14.86;58.41;96765.19;5043019;28;20028;-32
2023/03/19 06:18:08;;;;;;;6.88;2.85;;;;;;;14.90;58.45;96763.88;5044616;28;20029;-33
2023/03/19 06:20:34;;;;;;;12.25;4.15;;;;;;;14.99;58.36;96768.63;5044374;28;20499;-32
2023/03/19 06:22:59;;;;;;;9.50;3.40;;;;;;;15.03;58.17;96771.97;5043498;28;20030;-32
2023/03/19 06:25:25;;;;;;;9.30;3.00;;;;;;;15.06;58.01;96771.09;5044705;28;20556;-32
2023/03/19 06:27:50;;;;;;;9.68;4.00;;;;;;;15.02;57.95;96781.38;5043078;28;20078;-32
2023/03/19 06:30:15;;;;;;;10.77;3.17;;;;;;;15.08;58.39;96780.34;5047541;28;20017;-32
2023/03/19 06:32:41;;;;;;;10.63;3.10;;;;;;;15.19;57.71;96785.44;5039900;28;20025;-32
2023/03/19 06:35:07;;;;;;;8.38;3.20;;;;;;;15.17;57.74;96804.22;5035983;28;20025;-33
2023/03/19 06:37:33;;;;;;;9.10;3.85;;;;;;;15.16;57.67;96793.75;5047349;28;20028;-32
2023/03/19 06:39:58;;;;;;;7.25;3.20;;;;;;;15.04;57.98;96796.13;5033532;28;20029;-32
2023/03/19 06:42:24;;;;;;;7.35;3.08;;;;;;;14.85;58.80;96790.97;5043401;28;20017;-32
2023/03/19 06:44:50;;;;;;;8.60;2.85;;;;;;;15.01;58.30;96794.28;5039109;28;20052;-32
2023/03/19 06:47:15;;;;;;;8.82;3.60;;;;;;;15.09;57.99;96797.50;5034075;28;20025;-32
2023/03/19 06:49:41;;;;;;;9.20;3.35;;;;;;;14.96;58.76;96794.09;5035888;28;20384;-32
2023/03/19 06:52:07;;;;;;;16.10;3.28;;;;;;;15.06;58.12;96803.88;5042884;28;20036;-32
2023/03/19 06:54:32;;;;;;;8.40;3.30;;;;;;;15.04;58.43;96800.81;5040680;28;20112;-32
2023/03/19 06:56:58;;;;;;;13.60;3.22;;;;;;;14.96;58.62;96800.31;5040659;28;20477;-32
2023/03/19 06:59:24;;;;;;;6.60;2.90;;;;;;;14.96;58.54;96794.09;5040076;28;20115;-32
2023/03/19 07:01:51;;;;;;;10.40;3.65;;;;;;;15.11;58.16;96800.53;5036960;28;20461;-32
2023/03/19 07:04:17;;;;;;;12.13;3.42;;;;;;;15.04;58.56;96800.81;5038081;28;20029;-32
2023/03/19 07:06:42;;;;;;;7.20;3.22;;;;;;;15.05;58.41;96803.09;5038820;28;20021;-33
2023/03/19 07:09:08;;;;;;;9.25;3.13;;;;;;;15.09;58.28;96808.41;5036479;28;20037;-33
2023/03/19 07:11:33;;;;;;;6.40;2.72;;;;;;;15.38;57.27;96816.31;5035582;28;20032;-32
2023/03/19 07:13:59;;;;;;;7.53;3.05;;;;;;;15.21;58.15;96806.81;5040414;28;20033;-34
2023/03/19 07:16:24;;;;;;;8.70;3.90;;;;;;;15.18;58.15;96815.94;5040372;28;20461;-32
2023/03/19 07:18:50;;;;;;;7.70;3.10;;;;;;;15.28;58.16;96814.75;5034291;28;20465;-32
2023/03/19 07:21:15;;;;;;;7.15;3.00;;;;;;;15.30;58.02;96820.53;5043347;28;20090;-33
2023/03/19 07:23:41;;;;;;;8.68;3.70;;;;;;;15.26;57.92;96820.66;5043287;28;20025;-34
2023/03/19 07:26:06;;;;;;;11.57;3.38;;;;;;;15.27;57.84;96821.44;5042113;28;20021;-32
2023/03/19 07:28:32;;;;;;;8.52;3.47;;;;;;;15.22;58.09;96822.00;5043698;28;20045;-32
2023/03/19 07:30:57;;;;;;;8.57;3.47;;;;;;;14.96;59.20;96821.41;5042189;28;20106;-34
2023/03/19 07:33:23;;;;;;;8.70;3.15;;;;;;;15.16;58.22;96824.56;5043206;28;20017;-32
2023/03/19 07:35:50;;;;;;;12.27;3.63;;;;;;;14.97;59.08;96831.09;5042931;28;20048;-32
2023/03/19 07:38:15;;;;;;;12.57;3.60;;;;;;;15.17;58.27;96825.31;5042267;28;20075;-32
2023/03/19 07:40:41;;;;;;;13.50;4.75;;;;;;;15.06;58.57;96842.13;5037581;28;20461;-32
2023/03/19 07:43:07;;;;;;;11.18;3.28;;;;;;;15.09;58.45;96839.22;5040496;28;20470;-32
2023/03/19 07:45:32;;;;;;;10.82;3.72;;;;;;;15.14;58.44;96843.38;5036116;28;20033;-32
2023/03/19 07:48:02;;;;;;;10.40;3.45;;;;;;;15.19;58.02;96842.81;5042739;28;20071;-33
2023/03/19 07:50:27;;;;;;;12.32;3.78;;;;;;;14.93;58.81;96844.16;5039693;28;20730;-32
2023/03/19 07:52:53;;;;;;;10.30;3.97;;;;;;;15.24;57.95;96847.69;5045950;28;20017;-32
2023/03/19 07:55:18;;;;;;;9.40;3.83;;;;;;;15.32;57.81;96848.94;5040415;28;20479;-32
2023/03/19 07:57:44;;;;;;;9.85;3.97;;;;;;;15.06;58.62;96850.31;5035852;28;20420;-33
2023/03/19 08:00:10;;;;;;;7.78;3.35;;;;;;;15.27;58.22;96846.78;5043014;28;20425;-32
2023/03/19 08:02:35;;;;;;;8.13;3.20;;;;;;;15.10;58.63;96848.94;5041959;28;20028;-32
2023/03/19 08:05:03;;;;;;;13.65;3.80;;;;;;;15.22;58.27;96850.09;5042756;28;20029;-32
2023/03/19 08:07:29;;;;;;;8.93;3.20;;;;;;;15.17;58.76;96852.66;5035321;28;20108;-32
2023/03/19 08:09:56;;;;;;;10.45;3.10;;;;;;;15.23;58.83;96857.06;5040165;28;20037;-32
2023/03/19 08:12:21;;;;;;;10.82;3.15;;;;;;;15.18;58.74;96854.94;5040101;28;20151;-33
2023/03/19 08:14:47;;;;;;;9.52;3.58;;;;;;;15.31;58.69;96861.09;5040015;28;20107;-32
2023/03/19 08:17:12;;;;;;;9.20;3.75;;;;;;;15.24;58.57;96855.88;5040086;28;20037;-32
2023/03/19 08:19:38;;;;;;;11.38;3.92;;;;;;;15.37;58.01;96862.03;5039397;28;20035;-32
2023/03/19 08:22:03;;;;;;;8.00;3.50;;;;;;;15.53;57.83;96868.50;5040076;28;20049;-32
2023/03/19 08:24:29;;;;;;;17.15;3.58;;;;;;;15.41;58.27;96861.91;5038124;28;20033;-32
2023/03/19 08:26:55;;;;;;;8.85;3.58;;;;;;;15.29;58.52;96865.47;5037967;28;20057;-32
2023/03/19 08:29:20;;;;;;;11.77;4.60;;;;;;;15.38;58.35;96868.25;5046039;28;20021;-32
2023/03/19 08:31:46;;;;;;;11.02;3.92;;;;;;;15.31;58.47;96868.53;5038474;28;20357;-32
2023/03/19 08:34:12;;;;;;;11.10;4.88;;;;;;;15.53;57.77;96879.41;5049074;28;20139;-33
2023/03/19 08:36:37;;;;;;;12.77;6.15;;;;;;;15.16;58.95;96865.53;5043284;28;20017;-32
2023/03/19 08:39:03;;;;;;;14.65;7.45;;;;;;;15.20;59.08;96874.38;5051248;28;20045;-32
2023/03/19 08:41:30;;;;;;;22.92;11.73;;;;;;;15.16;59.08;96879.19;5043022;28;20017;-32
2023/03/19 08:43:55;;;;;;;22.98;12.38;;;;;;;15.21;59.03;96878.63;5050019;28;20371;-32
2023/03/19 08:46:21;;;;;;;74.70;33.63;;;;;;;15.45;57.96;96871.47;5044085;28;20103;-32
2023/03/19 08:48:47;;;;;;;64.60;31.25;;;;;;;15.21;58.94;96881.34;5042998;28;20040;-32
2023/03/19 08:51:12;;;;;;;39.83;21.20;;;;;;;15.29;58.39;96877.16;5043055;28;20029;-32
2023/03/19 08:53:38;;;;;;;32.83;16.98;;;;;;;15.41;58.25;96879.06;5049423;28;20045;-32
2023/03/19 08:56:06;;;;;;;50.88;24.58;;;;;;;15.44;58.30;96888.34;5042620;28;20461;-32
2023/03/19 08:58:32;;;;;;;47.00;26.75;;;;;;;15.50;58.12;96892.00;5043243;28;20025;-32
2023/03/19 09:01:09;;;;;;;41.88;23.50;;;;;;;15.44;58.04;96888.34;5045902;28;20025;-33
2023/03/19 09:03:36;;;;;;;31.67;18.88;;;;;;;15.45;58.20;96885.13;5037635;28;20075;-32
2023/03/19 09:06:05;;;;;;;28.67;16.75;;;;;;;15.18;59.45;96889.69;5041588;28;20036;-32
2023/03/19 09:08:32;;;;;;;25.58;14.07;;;;;;;15.41;58.38;96890.00;5050023;28;20051;-32
2023/03/19 09:10:58;;;;;;;27.33;14.52;;;;;;;15.57;57.58;96891.03;5042740;28;20112;-32
2023/03/19 09:13:24;;;;;;;22.55;12.68;;;;;;;15.34;58.44;96890.25;5048956;28;20031;-32
2023/03/19 09:15:50;;;;;;;24.05;10.45;;;;;;;15.30;58.58;96883.41;5043256;28;20031;-32
2023/03/19 09:18:16;;;;;;;22.98;10.32;;;;;;;15.38;58.33;96882.69;5042545;28;20029;-32
2023/03/19 09:20:42;;;;;;;20.10;10.00;;;;;;;15.53;58.04;96880.19;5042813;28;20021;-32
2023/03/19 09:23:08;;;;;;;13.52;7.93;;;;;;;15.38;58.38;96879.19;5044975;28;20751;-32
2023/03/19 09:25:34;;;;;;;22.85;8.45;;;;;;;15.50;57.88;96875.59;5045718;28;20361;-32
2023/03/19 09:27:59;;;;;;;11.27;5.80;;;;;;;15.48;58.05;96877.25;5042935;28;20024;-32
2023/03/19 09:30:25;;;;;;;18.30;5.90;;;;;;;15.53;58.13;96877.44;5039072;28;20017;-32
2023/03/19 09:32:51;;;;;;;10.38;5.38;;;;;;;15.46;58.07;96873.00;5045360;28;20358;-33
2023/03/19 09:35:17;;;;;;;13.82;6.05;;;;;;;15.35;58.73;96877.34;5042376;28;20079;-32
2023/03/19 09:37:42;;;;;;;10.63;5.30;;;;;;;15.70;57.04;96875.28;5041316;28;20017;-33
2023/03/19 09:40:21;;;;;;;15.40;6.20;;;;;;;15.54;58.08;96870.78;5041734;28;20057;-32
2023/03/19 09:43:05;;;;;;;9.90;5.63;;;;;;;15.36;58.51;96865.19;5047308;28;20079;-32
2023/03/19 09:45:31;;;;;;;10.80;4.82;;;;;;;15.68;57.32;96867.53;5042538;28;20017;-32
2023/03/19 09:48:05;;;;;;;8.23;5.05;;;;;;;15.51;57.93;96865.44;5042548;28;20127;-32
2023/03/19 09:50:36;;;;;;;11.95;4.63;;;;;;;15.66;57.71;96859.03;5049406;28;20021;-32
2023/03/19 09:53:16;;;;;;;14.07;4.30;;;;;;;15.54;57.92;96870.00;5042010;28;20469;-32
2023/03/19 09:55:46;;;;;;;13.80;5.28;;;;;;;15.68;57.76;96872.25;5041707;28;20049;-32
2023/03/19 09:58:16;;;;;;;10.45;5.07;;;;;;;15.68;57.60;96883.19;5041871;28;20048;-32
2023/03/19 10:00:43;;;;;;;9.68;4.80;;;;;;;15.56;57.91;96878.56;5040964;28;20023;-33
2023/03/19 10:03:33;;;;;;;12.68;4.95;;;;;;;15.53;57.99;96884.88;5041681;28;20040;-32
2023/03/19 10:06:13;;;;;;;14.00;4.82;;;;;;;15.43;58.13;96884.84;5041432;28;20420;-33
2023/03/19 10:08:48;;;;;;;10.48;5.30;;;;;;;15.56;57.55;96887.53;5041263;28;20025;-32
2023/03/19 10:11:26;;;;;;;10.60;4.95;;;;;;;15.74;56.97;96890.34;5039521;28;20053;-32
2023/03/19 10:14:23;;;;;;;7.93;5.60;;;;;;;15.82;56.44;96881.88;5036386;28;20485;-32
2023/03/19 10:16:53;;;;;;;10.98;6.13;;;;;;;15.66;57.10;96880.13;5043104;28;20037;-32
2023/03/19 10:19:46;;;;;;;13.55;5.50;;;;;;;15.58;56.95;96882.34;5041048;28;20048;-32
2023/03/19 10:22:20;;;;;;;11.43;4.93;;;;;;;15.74;56.37;96873.94;5033910;28;20032;-32
2023/03/19 10:24:49;;;;;;;9.77;4.78;;;;;;;15.48;57.36;96871.78;5040884;28;20033;-32
2023/03/19 10:27:20;;;;;;;8.70;5.05;;;;;;;15.57;56.96;96880.09;5048420;28;20075;-33
2023/03/19 10:29:46;;;;;;;10.52;4.72;;;;;;;15.44;57.67;96878.16;5040953;28;20393;-32
2023/03/19 10:32:37;;;;;;;10.93;4.63;;;;;;;15.73;56.61;96874.38;5041135;28;20025;-32
2023/03/19 10:35:15;;;;;;;13.43;5.53;;;;;;;15.85;56.09;96876.25;5041245;28;20035;-33
2023/03/19 10:37:41;;;;;;;10.10;5.45;;;;;;;15.71;56.61;96879.53;5038529;28;20456;-32
2023/03/19 10:40:27;;;;;;;13.30;5.45;;;;;;;15.64;56.75;96886.03;5047614;28;20062;-34
2023/03/19 10:43:11;;;;;;;9.25;5.53;;;;;;;15.61;56.72;96881.47;5044192;28;20021;-34
2023/03/19 10:45:37;;;;;;;13.65;5.78;;;;;;;15.64;56.67;96877.84;5037109;28;20377;-33
2023/03/19 10:48:04;;;;;;;13.55;6.18;;;;;;;15.74;56.16;96873.16;5043059;28;20047;-33
2023/03/19 10:50:49;;;;;;;17.88;7.20;;;;;;;15.37;57.33;96867.50;5047736;28;20484;-32
2023/03/19 10:53:15;;;;;;;14.57;6.97;;;;;;;15.61;56.69;96864.28;5041039;28;20036;-33
2023/03/19 10:55:54;;;;;;;12.63;6.15;;;;;;;15.77;55.91;96858.59;5036309;28;20017;-32
2023/03/19 10:58:24;;;;;;;14.05;7.10;;;;;;;15.46;57.13;96853.09;5043350;28;20081;-32
2023/03/19 11:00:57;;;;;;;11.77;6.57;;;;;;;15.69;56.32;96865.56;5040609;28;20056;-33
2023/03/19 11:03:33;;;;;;;14.25;6.93;;;;;;;15.54;56.68;96859.06;5039808;28;20029;-32
2023/03/19 11:06:17;;;;;;;14.88;7.38;;;;;;;15.61;56.42;96850.63;5037096;28;20025;-32
2023/03/19 11:08:50;;;;;;;10.88;6.90;;;;;;;15.67;56.36;96829.69;5035448;28;20045;-32
2023/03/19 11:11:34;;;;;;;11.88;6.25;;;;;;;15.48;56.95;96825.31;5037370;28;20025;-32
2023/03/19 11:14:20;;;;;;;14.23;6.95;;;;;;;15.72;56.11;96837.31;5048054;28;20021;-34
2023/03/19 11:17:21;;;;;;;14.30;7.15;;;;;;;15.53;57.00;96843.88;5041056;28;20032;-33
2023/03/19 11:19:56;;;;;;;14.57;7.10;;;;;;;15.73;56.65;96845.06;5041745;28;20028;-32
2023/03/19 11:22:35;;;;;;;13.30;7.40;;;;;;;15.64;56.80;96852.47;5040988;28;20032;-32
2023/03/19 11:25:19;;;;;;;15.13;7.05;;;;;;;15.61;56.54;96864.28;5042162;28;20021;-32
2023/03/19 11:27:57;;;;;;;15.38;7.63;;;;;;;15.59;56.82;96851.06;5044256;28;20451;-32
2023/03/19 11:30:23;;;;;;;19.60;9.85;;;;;;;15.45;57.20;96865.28;5039032;28;20461;-33
2023/03/19 11:33:06;;;;;;;19.85;10.10;;;;;;;15.50;56.92;96870.13;5040199;28;20031;-32